Twin Springs, Nevada Weather observations

Data are for observation ending at time listed.
 Day   Time    Ave.   Ave.  Ave.  Vector   Max.   Stn.    Total    Solar   Ave.  
  of    of     Air    Rel.  Wind   Wind    Wind   Baro.  Precip.   Rad.    Soil  
Year   Day     Temp.  Hum.  Speed  Dir.    Gust   Pres.                    Temp. 
2014   (PST)    F      %     mph   deg.    mph     mb.     in.     W/m2     F   
------------------------------------------------------------------------------
 113    8:00   45.1    29    6.9   334     14.8    844     0.00     528    54.6
 113    9:00   47.7    25    4.7   323     12.9    844     0.00     734    54.9
 113   10:00   50.5    21    5.3   344     14.6    844     0.00     898    56.1
 113   11:00   53.1    19    4.8   305     13.1    844     0.00    1007    58.5
 113   12:00   55.5    17    4.0   289     12.4    843     0.00    1046    61.7
 113   13:00   57.4    16    3.2   113     13.4    843     0.00    1025    64.8
 113   14:00   59.0    16    4.7   123     12.2    842     0.00     934    66.3
 113   15:00   61.4    14    3.4   133     14.2    842     0.00     778    66.8
 113   16:00   61.7    14    4.2   145     17.2    841     0.00     597    67.5
 113   17:00   61.6    14    6.0   113     16.0    841     0.00     365    68.6
 113   18:00   59.6    14    7.6   107     14.8    841     0.00     140    69.1
 113   19:00   55.5    16    7.1   121     13.4    841     0.00      10    68.6
 113   20:00   52.9    16    6.9   135     11.2    842     0.00       0    67.4
 113   21:00   49.6    19    4.8   117      9.1    843     0.00       0    65.9
 113   22:00   46.3    21    3.8    96      7.1    843     0.00       0    64.5
 113   23:00   40.9    27    3.4   323      6.4    843     0.00       0    63.1
 114    0:00   39.2    26    4.4   326      6.4    844     0.00       0    61.7
 114    1:00   37.9    29    3.1   324      5.6    844     0.00       0    60.3
 114    2:00   39.1    28    3.5   356      6.6    844     0.00       0    59.2
 114    3:00   39.4    28    2.5   360      6.6    843     0.00       0    58.2
 114    4:00   37.5    32    1.5     2      6.9    843     0.00       0    57.5
 114    5:00   33.9    36    1.0   312      5.2    843     0.00       0    56.7
 114    6:00   33.4    36    2.9   334      7.5    844     0.00      54    55.7
 114    7:00   41.9    27    2.4   327      6.3    844     0.00     305    54.9

Return to Twin Springs, Nevada graphs page.


Western Regional Climate Center,wrcc@dri.edu